createdAt,value
2018-03-16T00:02:11.482Z,7.15
2018-03-16T00:04:38.892Z,8.52
2018-03-16T00:07:06.375Z,7.97
2018-03-16T00:09:33.886Z,7.80
2018-03-16T00:12:01.280Z,7.68
2018-03-16T00:14:28.769Z,8.43
2018-03-16T00:16:56.192Z,6.37
2018-03-16T00:19:23.647Z,8.77
2018-03-16T00:21:51.075Z,6.55
2018-03-16T00:24:18.608Z,7.40
2018-03-16T00:26:46.037Z,7.62
2018-03-16T00:29:14.452Z,7.35
2018-03-16T00:31:42.949Z,8.07
2018-03-16T00:34:10.411Z,8.00
2018-03-16T00:36:37.922Z,7.45
2018-03-16T00:39:05.391Z,6.80
2018-03-16T00:41:32.856Z,6.75
2018-03-16T00:44:00.360Z,7.70
2018-03-16T00:46:27.752Z,6.22
2018-03-16T00:48:55.182Z,7.87
2018-03-16T00:51:22.620Z,7.62
2018-03-16T00:53:50.044Z,6.72
2018-03-16T00:56:17.469Z,6.53
2018-03-16T00:58:44.922Z,7.22
2018-03-16T01:01:13.279Z,7.97
2018-03-16T01:03:40.678Z,7.40
2018-03-16T01:06:08.082Z,8.05
2018-03-16T01:08:35.537Z,7.97
2018-03-16T01:11:02.926Z,6.62
2018-03-16T01:13:30.567Z,7.22
2018-03-16T01:15:58.029Z,7.80
2018-03-16T01:18:25.586Z,8.60
2018-03-16T01:20:53.067Z,9.05
2018-03-16T01:23:20.580Z,6.03
2018-03-16T01:25:48.062Z,6.97
2018-03-16T01:28:15.533Z,7.60
2018-03-16T01:30:42.967Z,8.73
2018-03-16T01:33:10.398Z,7.32
2018-03-16T01:38:11.706Z,7.65
2018-03-16T01:40:39.137Z,7.05
2018-03-16T01:43:06.561Z,6.65
2018-03-16T01:45:34.771Z,5.72
2018-03-16T01:48:02.186Z,8.82
2018-03-16T01:50:29.672Z,8.45
2018-03-16T01:53:02.956Z,6.47
2018-03-16T01:55:30.460Z,5.87
2018-03-16T01:57:58.102Z,6.80
2018-03-16T02:00:25.482Z,5.97
2018-03-16T02:02:52.909Z,4.82
2018-03-16T02:05:20.321Z,5.10
2018-03-16T02:07:47.751Z,4.15
2018-03-16T02:10:15.196Z,5.68
2018-03-16T02:12:42.759Z,6.10
2018-03-16T02:15:10.145Z,4.70
2018-03-16T02:17:37.711Z,6.62
2018-03-16T02:20:05.146Z,5.40
2018-03-16T02:22:32.578Z,6.62
2018-03-16T02:25:00.065Z,4.20
2018-03-16T02:27:27.491Z,6.12
2018-03-16T02:29:54.956Z,5.75
2018-03-16T02:32:22.345Z,5.35
2018-03-16T02:34:49.792Z,7.15
2018-03-16T02:37:17.221Z,5.75
2018-03-16T02:39:44.651Z,5.72
2018-03-16T02:42:12.048Z,6.87
2018-03-16T02:44:39.475Z,5.12
2018-03-16T02:47:06.907Z,7.60
2018-03-16T02:49:34.335Z,7.37
2018-03-16T02:52:01.762Z,6.85
2018-03-16T02:54:29.150Z,5.68
2018-03-16T02:56:56.613Z,5.93
2018-03-16T02:59:24.054Z,6.10
2018-03-16T03:01:51.511Z,5.47
2018-03-16T03:04:18.968Z,7.20
2018-03-16T03:06:46.441Z,5.90
2018-03-16T03:09:13.861Z,5.10
2018-03-16T03:11:41.327Z,6.35
2018-03-16T03:14:08.788Z,5.85
2018-03-16T03:16:36.260Z,6.03
2018-03-16T03:19:03.727Z,5.43
2018-03-16T03:21:31.259Z,5.85
2018-03-16T03:23:58.673Z,4.45
2018-03-16T03:26:26.077Z,3.75
2018-03-16T03:28:53.517Z,6.50
2018-03-16T03:31:20.940Z,4.72
2018-03-16T03:33:48.955Z,4.47
2018-03-16T03:36:16.390Z,3.65
2018-03-16T03:38:43.856Z,4.35
2018-03-16T03:41:11.342Z,5.05
2018-03-16T03:43:38.812Z,4.20
2018-03-16T03:46:06.256Z,4.07
2018-03-16T03:48:33.686Z,4.87
2018-03-16T03:51:01.106Z,3.95
2018-03-16T03:53:28.509Z,4.18
2018-03-16T03:55:56.213Z,5.97
2018-03-16T03:58:23.674Z,3.90
2018-03-16T04:00:51.104Z,3.53
2018-03-16T04:03:18.541Z,3.22
2018-03-16T04:05:46.027Z,3.80
2018-03-16T04:08:14.269Z,4.57
2018-03-16T04:10:41.825Z,5.12
2018-03-16T04:13:09.226Z,4.78
2018-03-16T04:15:37.547Z,4.53
2018-03-16T04:18:05.005Z,3.87
2018-03-16T04:20:32.404Z,3.33
2018-03-16T04:22:59.804Z,3.50
2018-03-16T04:25:27.284Z,3.00
2018-03-16T04:27:54.701Z,3.62
2018-03-16T04:30:22.134Z,2.75
2018-03-16T04:32:49.550Z,3.05
2018-03-16T04:35:16.978Z,2.90
2018-03-16T04:37:44.433Z,2.55
2018-03-16T04:40:11.837Z,2.30
2018-03-16T04:42:39.273Z,2.70
2018-03-16T04:45:06.696Z,2.80
2018-03-16T04:47:34.139Z,3.65
2018-03-16T04:50:01.626Z,3.35
2018-03-16T04:52:29.204Z,3.55
2018-03-16T04:54:56.690Z,3.03
2018-03-16T04:57:24.106Z,2.10
2018-03-16T04:59:51.499Z,2.95
2018-03-16T05:02:19.000Z,2.33
2018-03-16T05:04:46.448Z,2.87
2018-03-16T05:07:13.895Z,1.70
2018-03-16T05:09:41.415Z,2.12
2018-03-16T05:12:08.809Z,2.47
2018-03-16T05:14:36.280Z,2.67
2018-03-16T05:17:03.669Z,2.15
2018-03-16T05:19:31.109Z,2.30
2018-03-16T05:21:58.573Z,2.30
2018-03-16T05:24:26.020Z,2.30
2018-03-16T05:26:53.588Z,2.58
2018-03-16T05:29:20.984Z,2.00
2018-03-16T05:31:48.389Z,3.40
2018-03-16T05:34:15.865Z,2.17
2018-03-16T05:36:43.252Z,2.37
2018-03-16T05:39:10.731Z,1.70
2018-03-16T05:41:38.247Z,3.45
2018-03-16T05:44:05.705Z,1.92
2018-03-16T05:46:33.145Z,2.20
2018-03-16T05:49:00.706Z,3.10
2018-03-16T05:51:28.130Z,2.95
2018-03-16T05:53:55.556Z,2.45
2018-03-16T05:56:23.031Z,2.37
2018-03-16T05:58:50.482Z,4.62
2018-03-16T06:01:17.917Z,2.60
2018-03-16T06:03:45.378Z,2.60
2018-03-16T06:06:12.856Z,2.90
2018-03-16T06:08:40.305Z,2.53
2018-03-16T06:11:07.748Z,2.67
2018-03-16T06:13:35.412Z,2.72
2018-03-16T06:16:02.897Z,2.33
2018-03-16T06:18:30.349Z,2.50
2018-03-16T06:20:58.128Z,2.95
2018-03-16T06:23:25.569Z,2.90
2018-03-16T06:25:53.138Z,3.22
2018-03-16T06:28:20.722Z,4.03
2018-03-16T06:30:48.205Z,3.05
2018-03-16T06:33:15.782Z,2.25
2018-03-16T06:35:43.197Z,2.03
2018-03-16T06:38:10.821Z,2.25
2018-03-16T06:40:38.335Z,2.83
2018-03-16T06:43:05.797Z,3.17
2018-03-16T06:45:33.305Z,2.17
2018-03-16T06:48:00.712Z,4.15
2018-03-16T06:50:28.269Z,2.90
2018-03-16T06:52:55.811Z,2.65
2018-03-16T06:55:23.302Z,3.92
2018-03-16T06:57:50.895Z,3.80
2018-03-16T07:00:18.361Z,3.33
2018-03-16T07:02:45.846Z,2.55
2018-03-16T07:05:13.317Z,2.60
2018-03-16T07:07:40.750Z,3.03
2018-03-16T07:10:08.205Z,3.22
2018-03-16T07:12:35.641Z,2.12
2018-03-16T07:15:15.631Z,2.25
2018-03-16T07:17:43.092Z,2.25
2018-03-16T07:20:10.498Z,2.05
2018-03-16T07:22:37.997Z,1.73
2018-03-16T07:25:05.453Z,2.60
2018-03-16T07:27:32.926Z,4.05
2018-03-16T07:30:00.402Z,3.10
2018-03-16T07:32:27.831Z,3.40
2018-03-16T07:34:55.291Z,2.60
2018-03-16T07:37:22.696Z,1.77
2018-03-16T07:39:50.088Z,1.92
2018-03-16T07:42:17.508Z,1.85
2018-03-16T07:44:45.747Z,2.12
2018-03-16T07:47:13.232Z,2.08
2018-03-16T07:49:40.749Z,2.12
2018-03-16T07:52:08.248Z,3.00
2018-03-16T07:54:35.743Z,2.00
2018-03-16T07:57:03.202Z,3.08
2018-03-16T07:59:30.637Z,3.00
2018-03-16T08:01:58.130Z,2.62
2018-03-16T08:04:25.553Z,3.17
2018-03-16T08:06:53.630Z,2.65
2018-03-16T08:09:21.071Z,2.70
2018-03-16T08:11:48.498Z,2.78
2018-03-16T08:14:15.912Z,3.92
2018-03-16T08:16:43.501Z,3.28
2018-03-16T08:19:11.010Z,3.20
2018-03-16T08:21:38.408Z,2.53
2018-03-16T08:24:05.832Z,3.17
2018-03-16T08:26:33.369Z,5.32
2018-03-16T08:29:00.889Z,2.87
2018-03-16T08:31:28.385Z,3.17
2018-03-16T08:33:55.893Z,3.42
2018-03-16T08:36:23.366Z,3.03
2018-03-16T08:38:50.911Z,4.30
2018-03-16T08:41:18.340Z,3.05
2018-03-16T08:43:45.933Z,3.62
2018-03-16T08:46:13.358Z,4.07
2018-03-16T08:48:40.831Z,3.90
2018-03-16T08:51:08.307Z,3.25
2018-03-16T08:53:35.793Z,2.97
2018-03-16T08:56:03.459Z,3.12
2018-03-16T08:58:30.893Z,4.18
2018-03-16T09:00:58.352Z,4.35
2018-03-16T09:03:25.858Z,5.30
2018-03-16T09:05:53.295Z,3.75
2018-03-16T09:08:20.704Z,2.75
2018-03-16T09:10:48.181Z,3.92
2018-03-16T09:13:15.617Z,3.60
2018-03-16T09:15:43.083Z,3.37
2018-03-16T09:18:10.605Z,4.40
2018-03-16T09:20:38.172Z,3.15
2018-03-16T09:23:05.813Z,4.70
2018-03-16T09:25:33.381Z,3.83
2018-03-16T09:28:01.090Z,3.67
2018-03-16T09:30:28.588Z,2.45
2018-03-16T09:32:56.095Z,2.62
2018-03-16T09:35:25.021Z,2.55
2018-03-16T09:37:52.500Z,3.00
2018-03-16T09:40:19.984Z,3.37
2018-03-16T09:42:47.486Z,3.05
2018-03-16T09:45:14.989Z,3.33
2018-03-16T09:47:42.433Z,5.15
2018-03-16T09:50:09.928Z,4.35
2018-03-16T09:52:37.449Z,4.57
2018-03-16T09:55:16.667Z,3.20
2018-03-16T09:57:44.152Z,3.33
2018-03-16T10:00:11.626Z,3.42
2018-03-16T10:02:39.153Z,3.67
2018-03-16T10:05:06.699Z,3.03
2018-03-16T10:07:34.136Z,2.85
2018-03-16T10:10:01.594Z,4.70
2018-03-16T10:12:29.042Z,5.00
2018-03-16T10:14:56.633Z,6.37
2018-03-16T10:17:24.130Z,5.53
2018-03-16T10:19:51.577Z,5.30
2018-03-16T10:22:19.091Z,5.15
2018-03-16T10:24:46.623Z,4.72
2018-03-16T10:27:14.568Z,3.30
2018-03-16T10:29:42.235Z,3.00
2018-03-16T10:32:09.694Z,3.35
2018-03-16T10:34:37.869Z,2.65
2018-03-16T10:37:05.436Z,3.75
2018-03-16T10:39:32.937Z,4.68
2018-03-16T10:42:00.377Z,3.22
2018-03-16T10:44:27.929Z,3.67
2018-03-16T10:46:55.490Z,2.72
2018-03-16T10:49:22.954Z,2.62
2018-03-16T10:51:50.423Z,2.70
2018-03-16T10:54:18.056Z,3.40
2018-03-16T10:56:45.504Z,2.75
2018-03-16T10:59:14.312Z,2.10
2018-03-16T11:01:47.716Z,3.00
2018-03-16T11:04:15.324Z,2.60
2018-03-16T11:06:46.740Z,4.28
2018-03-16T11:09:14.234Z,3.05
2018-03-16T11:11:41.894Z,3.03
2018-03-16T11:14:10.895Z,3.08
2018-03-16T11:16:39.523Z,3.15
2018-03-16T11:19:07.138Z,3.05
2018-03-16T11:21:34.612Z,4.65
2018-03-16T11:24:02.189Z,2.50
2018-03-16T11:26:29.736Z,3.67
2018-03-16T11:28:57.206Z,3.90
2018-03-16T11:31:24.760Z,4.30
2018-03-16T11:33:52.336Z,3.20
2018-03-16T11:36:19.804Z,3.20
2018-03-16T11:38:47.329Z,4.15
2018-03-16T11:41:14.773Z,3.30
2018-03-16T11:43:42.266Z,3.50
2018-03-16T11:46:09.710Z,2.75
2018-03-16T11:48:38.052Z,3.03
2018-03-16T11:51:05.523Z,4.55
2018-03-16T11:53:32.924Z,3.53
2018-03-16T11:56:00.483Z,2.85
2018-03-16T11:58:27.952Z,4.05
2018-03-16T12:00:55.446Z,3.62
2018-03-16T12:03:23.494Z,3.15
2018-03-16T12:05:51.270Z,2.97
2018-03-16T12:08:18.731Z,3.42
2018-03-16T12:10:46.195Z,3.05
2018-03-16T12:13:13.685Z,3.78
2018-03-16T12:15:41.178Z,2.70
2018-03-16T12:18:08.664Z,4.03
2018-03-16T12:20:36.478Z,4.18
2018-03-16T12:23:04.035Z,3.70
2018-03-16T12:25:31.748Z,3.22
2018-03-16T12:27:59.182Z,2.90
2018-03-16T12:30:26.649Z,2.70
2018-03-16T12:32:54.100Z,2.50
2018-03-16T12:35:21.813Z,2.62
2018-03-16T12:37:49.328Z,3.70
2018-03-16T12:40:17.208Z,3.10
2018-03-16T12:42:45.095Z,3.58
2018-03-16T12:45:12.603Z,2.58
2018-03-16T12:47:40.093Z,4.72
2018-03-16T12:50:07.576Z,3.00
2018-03-16T12:52:35.049Z,2.80
2018-03-16T12:55:02.559Z,3.00
2018-03-16T12:57:30.038Z,3.10
2018-03-16T12:59:58.350Z,3.67
2018-03-16T13:02:25.839Z,2.62
2018-03-16T13:04:53.379Z,3.50
2018-03-16T13:07:20.851Z,4.28
2018-03-16T13:09:48.317Z,3.12
2018-03-16T13:12:15.785Z,3.87
2018-03-16T13:14:43.221Z,2.85
2018-03-16T13:17:11.334Z,3.00
2018-03-16T13:19:38.793Z,2.90
2018-03-16T13:22:06.233Z,2.10
2018-03-16T13:24:33.722Z,1.90
2018-03-16T13:27:02.175Z,3.50
2018-03-16T13:29:29.667Z,3.20
2018-03-16T13:31:57.134Z,2.83
2018-03-16T13:34:24.611Z,1.48
2018-03-16T13:36:52.070Z,1.75
2018-03-16T13:39:19.538Z,2.90
2018-03-16T13:41:47.158Z,3.10
2018-03-16T13:44:14.659Z,2.40
2018-03-16T13:46:42.097Z,2.85
2018-03-16T13:49:10.008Z,4.22
2018-03-16T13:51:37.433Z,3.45
2018-03-16T13:54:04.891Z,3.58
2018-03-16T13:56:32.595Z,3.25
2018-03-16T13:59:00.079Z,2.75
2018-03-16T14:01:27.562Z,3.65
2018-03-16T14:03:55.088Z,3.03
2018-03-16T14:06:22.484Z,2.28
2018-03-16T14:08:50.178Z,2.65
2018-03-16T14:11:18.385Z,2.37
2018-03-16T14:13:45.829Z,3.12
2018-03-16T14:16:13.365Z,3.10
2018-03-16T14:18:40.901Z,3.45
2018-03-16T14:21:08.820Z,1.58
2018-03-16T14:23:36.212Z,2.40
2018-03-16T14:26:03.678Z,1.48
2018-03-16T14:28:31.854Z,3.35
2018-03-16T14:30:59.475Z,1.48
2018-03-16T14:33:26.900Z,2.10
2018-03-16T14:35:54.414Z,1.85
2018-03-16T14:38:21.962Z,2.33
2018-03-16T14:40:49.672Z,3.60
2018-03-16T14:43:17.160Z,1.70
2018-03-16T14:45:45.311Z,1.67
2018-03-16T14:48:12.749Z,2.75
2018-03-16T14:50:40.196Z,3.65
2018-03-16T14:53:08.091Z,3.40
2018-03-16T14:55:35.634Z,2.20
2018-03-16T14:58:03.106Z,2.90
2018-03-16T15:00:31.326Z,1.90
2018-03-16T15:02:58.842Z,1.87
2018-03-16T15:05:26.393Z,1.92
2018-03-16T15:07:54.184Z,2.65
2018-03-16T15:10:21.773Z,2.08
2018-03-16T15:12:49.225Z,1.25
2018-03-16T15:15:16.710Z,2.08
2018-03-16T15:17:44.165Z,3.83
2018-03-16T15:20:11.617Z,2.25
2018-03-16T15:22:39.053Z,2.50
2018-03-16T15:25:06.516Z,2.12
2018-03-16T15:27:33.964Z,2.67
2018-03-16T15:30:02.248Z,2.55
2018-03-16T15:32:29.764Z,1.30
2018-03-16T15:34:58.057Z,1.58
2018-03-16T15:37:25.556Z,1.95
2018-03-16T15:39:52.973Z,2.10
2018-03-16T15:42:20.438Z,1.70
2018-03-16T15:44:48.015Z,1.58
2018-03-16T15:47:15.473Z,1.10
2018-03-16T15:49:42.955Z,2.15
2018-03-16T15:52:10.426Z,0.98
2018-03-16T15:54:38.531Z,1.75
2018-03-16T15:57:06.045Z,1.48
2018-03-16T15:59:33.572Z,1.20
2018-03-16T16:02:01.029Z,2.40
2018-03-16T16:04:28.458Z,2.17
2018-03-16T16:06:55.949Z,2.00
2018-03-16T16:09:23.451Z,3.37
2018-03-16T16:11:50.973Z,1.52
2018-03-16T16:14:18.490Z,3.28
2018-03-16T16:16:45.954Z,2.45
2018-03-16T16:19:13.393Z,1.35
2018-03-16T16:21:40.876Z,2.03
2018-03-16T16:24:08.706Z,2.78
2018-03-16T16:26:36.182Z,1.60
2018-03-16T16:29:03.641Z,1.77
2018-03-16T16:31:31.270Z,1.52
2018-03-16T16:33:58.864Z,1.87
2018-03-16T16:36:26.385Z,2.37
2018-03-16T16:38:53.869Z,1.70
2018-03-16T16:41:21.522Z,2.17
2018-03-16T16:43:48.979Z,1.52
2018-03-16T16:46:16.575Z,1.25
2018-03-16T16:48:44.014Z,2.80
2018-03-16T16:51:11.583Z,1.70
2018-03-16T16:53:39.106Z,2.30
2018-03-16T16:56:06.576Z,1.70
2018-03-16T16:58:34.009Z,1.87
2018-03-16T17:01:01.450Z,2.10
2018-03-16T17:03:28.980Z,1.60
2018-03-16T17:05:56.436Z,2.12
2018-03-16T17:08:23.877Z,2.37
2018-03-16T17:10:51.291Z,1.95
2018-03-16T17:13:19.645Z,2.08
2018-03-16T17:15:47.122Z,3.75
2018-03-16T17:18:15.302Z,2.20
2018-03-16T17:20:42.713Z,2.30
2018-03-16T17:23:10.156Z,1.90
2018-03-16T17:25:37.786Z,4.60
2018-03-16T17:28:05.224Z,1.55
2018-03-16T17:30:32.649Z,1.55
2018-03-16T17:33:00.309Z,2.83
2018-03-16T17:35:27.802Z,1.42
2018-03-16T17:37:55.222Z,2.70
2018-03-16T17:40:22.632Z,1.30
2018-03-16T17:42:50.537Z,2.28
2018-03-16T17:45:18.006Z,3.03
2018-03-16T17:47:45.556Z,2.65
2018-03-16T17:50:12.980Z,5.68
2018-03-16T17:52:40.569Z,2.12
2018-03-16T17:55:08.043Z,1.90
2018-03-16T17:57:35.569Z,3.17
2018-03-16T18:00:03.013Z,3.05
2018-03-16T18:02:30.490Z,3.22
2018-03-16T18:04:58.060Z,1.80
2018-03-16T18:07:25.503Z,2.37
2018-03-16T18:09:53.359Z,3.08
2018-03-16T18:12:20.789Z,1.77
2018-03-16T18:14:48.197Z,1.20
2018-03-16T18:17:15.904Z,2.53
2018-03-16T18:19:43.368Z,2.60
2018-03-16T18:22:10.774Z,3.20
2018-03-16T18:24:38.255Z,1.90
2018-03-16T18:27:06.024Z,2.80
2018-03-16T18:29:33.433Z,3.10
2018-03-16T18:32:00.930Z,2.30
2018-03-16T18:34:28.406Z,3.35
2018-03-16T18:36:55.869Z,3.33
2018-03-16T18:39:23.368Z,2.40
2018-03-16T18:41:50.959Z,2.85
2018-03-16T18:44:18.445Z,3.10
2018-03-16T18:46:45.914Z,2.20
2018-03-16T18:49:13.368Z,3.83
2018-03-16T18:51:40.842Z,3.28
2018-03-16T18:54:08.574Z,3.50
2018-03-16T18:56:36.275Z,2.65
2018-03-16T18:59:03.952Z,2.90
2018-03-16T19:01:31.410Z,2.90
2018-03-16T19:03:59.051Z,1.80
2018-03-16T19:06:26.711Z,2.55
2018-03-16T19:08:54.196Z,2.37
2018-03-16T19:11:22.253Z,2.85
2018-03-16T19:13:49.702Z,10.80
2018-03-16T19:16:17.544Z,3.42
2018-03-16T19:18:44.976Z,4.00
2018-03-16T19:21:12.786Z,3.00
2018-03-16T19:23:40.381Z,2.20
2018-03-16T19:26:07.970Z,4.70
2018-03-16T19:28:35.471Z,2.45
2018-03-16T19:31:02.918Z,2.00
2018-03-16T19:33:30.406Z,5.70
2018-03-16T19:35:57.882Z,2.60
2018-03-16T19:38:25.358Z,1.75
2018-03-16T19:40:52.983Z,2.25
2018-03-16T19:43:20.496Z,1.50
2018-03-16T19:45:48.134Z,2.75
2018-03-16T19:48:15.587Z,1.33
2018-03-16T19:50:43.116Z,1.60
2018-03-16T19:53:10.678Z,2.33
2018-03-16T19:55:38.161Z,1.25
2018-03-16T19:58:05.713Z,2.72
2018-03-16T20:00:33.172Z,3.20
2018-03-16T20:03:00.638Z,2.40
2018-03-16T20:05:28.092Z,1.20
2018-03-16T20:07:55.568Z,0.85
2018-03-16T20:10:23.038Z,1.73
2018-03-16T20:12:50.537Z,1.05
2018-03-16T20:15:17.984Z,0.95
2018-03-16T20:17:45.460Z,1.40
2018-03-16T20:20:13.023Z,1.35
2018-03-16T20:22:40.477Z,1.48
2018-03-16T20:25:07.943Z,1.00
2018-03-16T20:27:35.591Z,0.60
2018-03-16T20:30:03.004Z,0.90
2018-03-16T20:32:30.468Z,0.98
2018-03-16T20:34:57.955Z,1.00
2018-03-16T20:37:25.652Z,1.00
2018-03-16T20:39:53.089Z,0.80
2018-03-16T20:42:20.615Z,0.75
2018-03-16T20:44:48.221Z,0.80
2018-03-16T20:47:15.707Z,3.58
2018-03-16T20:49:43.193Z,7.95
2018-03-16T20:52:10.647Z,1.42
2018-03-16T20:54:38.137Z,1.85
2018-03-16T20:57:05.573Z,3.50
2018-03-16T20:59:33.213Z,1.25
2018-03-16T21:02:00.684Z,6.72
2018-03-16T21:04:28.134Z,1.92
2018-03-16T21:06:55.682Z,2.80
2018-03-16T21:09:23.091Z,1.75
2018-03-16T21:11:50.532Z,1.70
2018-03-16T21:14:17.951Z,2.05
2018-03-16T21:16:45.389Z,1.73
2018-03-16T21:19:12.792Z,1.05
2018-03-16T21:21:40.207Z,2.35
2018-03-16T21:24:07.673Z,1.77
2018-03-16T21:26:35.194Z,1.20
2018-03-16T21:29:02.756Z,1.60
2018-03-16T21:31:30.314Z,0.90
2018-03-16T21:33:57.755Z,1.08
2018-03-16T21:36:25.218Z,1.25
2018-03-16T21:38:52.679Z,1.10
2018-03-16T21:41:20.108Z,1.05
2018-03-16T21:43:47.568Z,0.80
2018-03-16T21:46:15.041Z,1.20
2018-03-16T21:48:42.572Z,1.27
2018-03-16T21:51:10.070Z,1.20
2018-03-16T21:53:37.519Z,1.23
2018-03-16T21:56:05.032Z,1.30
2018-03-16T21:58:32.665Z,1.27
2018-03-16T22:01:00.108Z,2.08
2018-03-16T22:03:27.537Z,2.15
2018-03-16T22:05:54.978Z,1.08
2018-03-16T22:08:22.477Z,2.05
2018-03-16T22:10:50.011Z,2.25
2018-03-16T22:13:17.446Z,1.80
2018-03-16T22:15:44.920Z,3.92
2018-03-16T22:18:12.357Z,4.40
2018-03-16T22:20:40.048Z,1.95
2018-03-16T22:23:07.635Z,1.62
2018-03-16T22:25:35.061Z,0.90
2018-03-16T22:28:02.648Z,2.47
2018-03-16T22:30:30.542Z,1.50
2018-03-16T22:32:57.941Z,2.17
2018-03-16T22:35:25.357Z,1.05
2018-03-16T22:37:52.760Z,1.42
2018-03-16T22:40:20.307Z,1.27
2018-03-16T22:42:47.797Z,1.27
2018-03-16T22:45:14.652Z,1.37
2018-03-16T22:47:42.218Z,1.05
2018-03-16T22:50:09.701Z,1.23
2018-03-16T22:52:37.156Z,1.33
2018-03-16T22:55:04.573Z,1.02
2018-03-16T22:57:32.070Z,0.98
2018-03-16T22:59:59.562Z,1.20
2018-03-16T23:02:27.031Z,1.37
2018-03-16T23:04:54.510Z,0.82
2018-03-16T23:07:22.160Z,0.80
2018-03-16T23:09:49.608Z,1.90
2018-03-16T23:12:17.101Z,2.20
2018-03-16T23:14:44.541Z,1.65
2018-03-16T23:17:11.997Z,1.87
2018-03-16T23:19:40.068Z,1.85
2018-03-16T23:22:07.650Z,1.30
2018-03-16T23:24:35.138Z,1.15
2018-03-16T23:27:02.638Z,0.93
2018-03-16T23:29:30.122Z,2.10
2018-03-16T23:31:57.664Z,1.00
2018-03-16T23:34:25.113Z,0.95
2018-03-16T23:36:52.770Z,1.60
2018-03-16T23:39:20.263Z,1.02
2018-03-16T23:41:47.743Z,1.10
2018-03-16T23:44:15.211Z,1.30
2018-03-16T23:46:42.683Z,1.05
2018-03-16T23:49:10.077Z,1.15
2018-03-16T23:51:37.654Z,1.27
2018-03-16T23:54:05.082Z,1.17
2018-03-16T23:56:32.468Z,1.00
2018-03-16T23:59:00.102Z,1.60
